sensor_id;sensor_type;location;lat;lon;timestamp;P1;durP1;ratioP1;P2;durP2;ratioP2
19482;SDS011;9882;51.166;6.992;2023-07-13T00:01:09;4.00;;;1.88;;
19482;SDS011;9882;51.166;6.992;2023-07-13T00:03:37;2.03;;;1.30;;
19482;SDS011;9882;51.166;6.992;2023-07-13T00:06:08;2.15;;;1.45;;
19482;SDS011;9882;51.166;6.992;2023-07-13T00:08:37;3.92;;;1.85;;
19482;SDS011;9882;51.166;6.992;2023-07-13T00:11:05;5.20;;;1.75;;
19482;SDS011;9882;51.166;6.992;2023-07-13T00:13:34;5.63;;;1.98;;
19482;SDS011;9882;51.166;6.992;2023-07-13T00:16:04;8.15;;;2.00;;
19482;SDS011;9882;51.166;6.992;2023-07-13T00:18:33;6.10;;;2.38;;
19482;SDS011;9882;51.166;6.992;2023-07-13T00:21:03;10.35;;;2.17;;
19482;SDS011;9882;51.166;6.992;2023-07-13T00:23:32;6.70;;;1.95;;
19482;SDS011;9882;51.166;6.992;2023-07-13T00:26:02;8.07;;;1.85;;
19482;SDS011;9882;51.166;6.992;2023-07-13T00:28:31;6.95;;;2.05;;
19482;SDS011;9882;51.166;6.992;2023-07-13T00:31:01;4.53;;;2.00;;
19482;SDS011;9882;51.166;6.992;2023-07-13T00:33:30;6.60;;;1.80;;
19482;SDS011;9882;51.166;6.992;2023-07-13T00:35:59;4.60;;;1.70;;
19482;SDS011;9882;51.166;6.992;2023-07-13T00:38:30;4.95;;;1.85;;
19482;SDS011;9882;51.166;6.992;2023-07-13T00:40:58;2.67;;;1.60;;
19482;SDS011;9882;51.166;6.992;2023-07-13T00:43:27;5.15;;;2.10;;
19482;SDS011;9882;51.166;6.992;2023-07-13T00:46:13;7.00;;;2.30;;
19482;SDS011;9882;51.166;6.992;2023-07-13T00:48:51;3.10;;;1.92;;
19482;SDS011;9882;51.166;6.992;2023-07-13T00:51:23;3.65;;;1.80;;
19482;SDS011;9882;51.166;6.992;2023-07-13T00:53:56;3.95;;;2.05;;
19482;SDS011;9882;51.166;6.992;2023-07-13T00:56:28;2.70;;;1.70;;
19482;SDS011;9882;51.166;6.992;2023-07-13T00:58:59;3.60;;;2.00;;
19482;SDS011;9882;51.166;6.992;2023-07-13T01:01:29;4.45;;;1.98;;
19482;SDS011;9882;51.166;6.992;2023-07-13T01:03:58;6.47;;;1.83;;
19482;SDS011;9882;51.166;6.992;2023-07-13T01:06:27;5.20;;;2.08;;
19482;SDS011;9882;51.166;6.992;2023-07-13T01:09:00;5.00;;;1.90;;
19482;SDS011;9882;51.166;6.992;2023-07-13T01:11:30;4.75;;;1.90;;
19482;SDS011;9882;51.166;6.992;2023-07-13T01:13:59;5.35;;;2.15;;
19482;SDS011;9882;51.166;6.992;2023-07-13T01:16:28;3.50;;;1.98;;
19482;SDS011;9882;51.166;6.992;2023-07-13T01:18:59;4.45;;;1.80;;
19482;SDS011;9882;51.166;6.992;2023-07-13T01:21:32;5.43;;;2.20;;
19482;SDS011;9882;51.166;6.992;2023-07-13T01:24:01;2.60;;;1.70;;
19482;SDS011;9882;51.166;6.992;2023-07-13T01:26:30;4.80;;;1.50;;
19482;SDS011;9882;51.166;6.992;2023-07-13T01:28:58;6.28;;;1.88;;
19482;SDS011;9882;51.166;6.992;2023-07-13T01:31:26;3.13;;;2.00;;
19482;SDS011;9882;51.166;6.992;2023-07-13T01:33:57;7.22;;;2.20;;
19482;SDS011;9882;51.166;6.992;2023-07-13T01:36:25;7.35;;;2.20;;
19482;SDS011;9882;51.166;6.992;2023-07-13T01:38:55;9.38;;;2.17;;
19482;SDS011;9882;51.166;6.992;2023-07-13T01:41:23;1.50;;;1.40;;
19482;SDS011;9882;51.166;6.992;2023-07-13T01:43:53;8.80;;;1.88;;
19482;SDS011;9882;51.166;6.992;2023-07-13T01:46:21;5.60;;;1.90;;
19482;SDS011;9882;51.166;6.992;2023-07-13T01:48:50;5.70;;;1.92;;
19482;SDS011;9882;51.166;6.992;2023-07-13T01:51:19;5.03;;;1.77;;
19482;SDS011;9882;51.166;6.992;2023-07-13T01:53:48;3.53;;;1.75;;
19482;SDS011;9882;51.166;6.992;2023-07-13T01:56:18;6.88;;;1.85;;
19482;SDS011;9882;51.166;6.992;2023-07-13T01:58:47;4.95;;;1.90;;
19482;SDS011;9882;51.166;6.992;2023-07-13T02:01:16;1.67;;;1.40;;
19482;SDS011;9882;51.166;6.992;2023-07-13T02:03:44;8.38;;;2.00;;
19482;SDS011;9882;51.166;6.992;2023-07-13T02:06:13;3.38;;;1.73;;
19482;SDS011;9882;51.166;6.992;2023-07-13T02:08:42;4.63;;;1.90;;
19482;SDS011;9882;51.166;6.992;2023-07-13T02:11:10;5.78;;;2.00;;
19482;SDS011;9882;51.166;6.992;2023-07-13T02:13:40;5.03;;;1.90;;
19482;SDS011;9882;51.166;6.992;2023-07-13T02:16:08;3.17;;;1.88;;
19482;SDS011;9882;51.166;6.992;2023-07-13T02:18:37;6.47;;;2.22;;
19482;SDS011;9882;51.166;6.992;2023-07-13T02:21:05;5.78;;;2.00;;
19482;SDS011;9882;51.166;6.992;2023-07-13T02:23:34;4.88;;;1.73;;
19482;SDS011;9882;51.166;6.992;2023-07-13T02:26:03;10.10;;;2.20;;
19482;SDS011;9882;51.166;6.992;2023-07-13T02:28:32;4.65;;;1.98;;
19482;SDS011;9882;51.166;6.992;2023-07-13T02:31:05;2.25;;;1.50;;
19482;SDS011;9882;51.166;6.992;2023-07-13T02:33:35;3.45;;;1.70;;
19482;SDS011;9882;51.166;6.992;2023-07-13T02:36:04;4.55;;;1.88;;
19482;SDS011;9882;51.166;6.992;2023-07-13T02:38:33;4.45;;;1.75;;
19482;SDS011;9882;51.166;6.992;2023-07-13T02:41:02;3.72;;;1.83;;
19482;SDS011;9882;51.166;6.992;2023-07-13T02:43:31;6.03;;;2.03;;
19482;SDS011;9882;51.166;6.992;2023-07-13T02:46:00;4.28;;;2.00;;
19482;SDS011;9882;51.166;6.992;2023-07-13T02:48:36;3.47;;;2.00;;
19482;SDS011;9882;51.166;6.992;2023-07-13T02:51:06;8.90;;;2.13;;
19482;SDS011;9882;51.166;6.992;2023-07-13T02:53:35;4.63;;;1.98;;
19482;SDS011;9882;51.166;6.992;2023-07-13T02:56:05;4.30;;;1.50;;
19482;SDS011;9882;51.166;6.992;2023-07-13T02:58:34;4.07;;;1.88;;
19482;SDS011;9882;51.166;6.992;2023-07-13T03:01:06;4.90;;;2.15;;
19482;SDS011;9882;51.166;6.992;2023-07-13T03:03:36;7.60;;;2.03;;
19482;SDS011;9882;51.166;6.992;2023-07-13T03:06:05;2.45;;;1.73;;
19482;SDS011;9882;51.166;6.992;2023-07-13T03:08:42;1.70;;;1.60;;
19482;SDS011;9882;51.166;6.992;2023-07-13T03:11:12;7.40;;;1.90;;
19482;SDS011;9882;51.166;6.992;2023-07-13T03:13:44;2.53;;;1.90;;
19482;SDS011;9882;51.166;6.992;2023-07-13T03:16:13;6.78;;;2.28;;
19482;SDS011;9882;51.166;6.992;2023-07-13T03:18:47;4.57;;;1.95;;
19482;SDS011;9882;51.166;6.992;2023-07-13T03:21:17;5.47;;;2.30;;
19482;SDS011;9882;51.166;6.992;2023-07-13T03:23:45;4.47;;;2.03;;
19482;SDS011;9882;51.166;6.992;2023-07-13T03:26:15;6.05;;;2.10;;
19482;SDS011;9882;51.166;6.992;2023-07-13T03:28:45;4.97;;;2.25;;
19482;SDS011;9882;51.166;6.992;2023-07-13T03:31:22;7.28;;;2.20;;
19482;SDS011;9882;51.166;6.992;2023-07-13T03:33:54;5.43;;;2.00;;
19482;SDS011;9882;51.166;6.992;2023-07-13T03:36:25;4.20;;;1.95;;
19482;SDS011;9882;51.166;6.992;2023-07-13T03:38:59;3.00;;;1.77;;
19482;SDS011;9882;51.166;6.992;2023-07-13T03:41:37;3.20;;;2.00;;
19482;SDS011;9882;51.166;6.992;2023-07-13T03:44:05;5.28;;;2.10;;
19482;SDS011;9882;51.166;6.992;2023-07-13T03:46:34;2.72;;;1.40;;
19482;SDS011;9882;51.166;6.992;2023-07-13T03:49:05;4.53;;;2.00;;
19482;SDS011;9882;51.166;6.992;2023-07-13T03:51:33;8.15;;;1.90;;
19482;SDS011;9882;51.166;6.992;2023-07-13T03:54:02;2.83;;;1.70;;
19482;SDS011;9882;51.166;6.992;2023-07-13T03:56:31;3.50;;;1.70;;
19482;SDS011;9882;51.166;6.992;2023-07-13T03:59:02;8.68;;;2.40;;
19482;SDS011;9882;51.166;6.992;2023-07-13T04:01:31;5.63;;;2.35;;
19482;SDS011;9882;51.166;6.992;2023-07-13T04:04:00;2.58;;;1.60;;
19482;SDS011;9882;51.166;6.992;2023-07-13T04:06:32;5.57;;;1.98;;
19482;SDS011;9882;51.166;6.992;2023-07-13T04:09:01;4.57;;;1.95;;
19482;SDS011;9882;51.166;6.992;2023-07-13T04:11:32;7.75;;;2.10;;
19482;SDS011;9882;51.166;6.992;2023-07-13T04:14:03;5.07;;;2.03;;
19482;SDS011;9882;51.166;6.992;2023-07-13T04:16:33;4.03;;;2.17;;
19482;SDS011;9882;51.166;6.992;2023-07-13T04:19:02;5.00;;;1.90;;
19482;SDS011;9882;51.166;6.992;2023-07-13T04:21:32;7.68;;;2.20;;
19482;SDS011;9882;51.166;6.992;2023-07-13T04:24:00;2.65;;;1.60;;
19482;SDS011;9882;51.166;6.992;2023-07-13T04:26:29;1.92;;;1.65;;
19482;SDS011;9882;51.166;6.992;2023-07-13T04:28:58;6.47;;;2.22;;
19482;SDS011;9882;51.166;6.992;2023-07-13T04:31:27;9.57;;;2.17;;
19482;SDS011;9882;51.166;6.992;2023-07-13T04:33:55;3.55;;;2.05;;
19482;SDS011;9882;51.166;6.992;2023-07-13T04:36:24;8.82;;;2.25;;
19482;SDS011;9882;51.166;6.992;2023-07-13T04:38:55;10.43;;;2.70;;
19482;SDS011;9882;51.166;6.992;2023-07-13T04:41:24;4.07;;;2.13;;
19482;SDS011;9882;51.166;6.992;2023-07-13T04:43:52;4.68;;;2.22;;
19482;SDS011;9882;51.166;6.992;2023-07-13T04:46:21;4.15;;;2.13;;
19482;SDS011;9882;51.166;6.992;2023-07-13T04:48:50;7.43;;;1.90;;
19482;SDS011;9882;51.166;6.992;2023-07-13T04:51:20;8.15;;;2.22;;
19482;SDS011;9882;51.166;6.992;2023-07-13T04:53:48;15.40;;;3.10;;
19482;SDS011;9882;51.166;6.992;2023-07-13T04:56:20;9.20;;;2.45;;
19482;SDS011;9882;51.166;6.992;2023-07-13T04:58:48;7.65;;;2.28;;
19482;SDS011;9882;51.166;6.992;2023-07-13T05:01:17;5.78;;;2.20;;
19482;SDS011;9882;51.166;6.992;2023-07-13T05:03:45;3.67;;;2.22;;
19482;SDS011;9882;51.166;6.992;2023-07-13T05:06:13;10.30;;;2.20;;
19482;SDS011;9882;51.166;6.992;2023-07-13T05:08:42;8.73;;;2.17;;
19482;SDS011;9882;51.166;6.992;2023-07-13T05:11:10;3.22;;;2.10;;
19482;SDS011;9882;51.166;6.992;2023-07-13T05:13:40;9.07;;;3.00;;
19482;SDS011;9882;51.166;6.992;2023-07-13T05:16:09;4.63;;;2.20;;
19482;SDS011;9882;51.166;6.992;2023-07-13T05:18:37;3.92;;;2.05;;
19482;SDS011;9882;51.166;6.992;2023-07-13T05:21:07;9.25;;;2.53;;
19482;SDS011;9882;51.166;6.992;2023-07-13T05:23:37;7.90;;;2.42;;
19482;SDS011;9882;51.166;6.992;2023-07-13T05:26:08;3.60;;;2.10;;
19482;SDS011;9882;51.166;6.992;2023-07-13T05:28:37;5.93;;;2.08;;
19482;SDS011;9882;51.166;6.992;2023-07-13T05:31:08;9.77;;;2.60;;
19482;SDS011;9882;51.166;6.992;2023-07-13T05:33:37;11.18;;;2.60;;
19482;SDS011;9882;51.166;6.992;2023-07-13T05:36:06;6.10;;;2.50;;
19482;SDS011;9882;51.166;6.992;2023-07-13T05:38:35;6.53;;;2.40;;
19482;SDS011;9882;51.166;6.992;2023-07-13T05:41:03;7.20;;;2.70;;
19482;SDS011;9882;51.166;6.992;2023-07-13T05:43:32;7.55;;;2.38;;
19482;SDS011;9882;51.166;6.992;2023-07-13T05:46:01;8.30;;;2.42;;
19482;SDS011;9882;51.166;6.992;2023-07-13T05:48:30;9.40;;;2.58;;
19482;SDS011;9882;51.166;6.992;2023-07-13T05:50:59;13.05;;;2.53;;
19482;SDS011;9882;51.166;6.992;2023-07-13T05:53:29;3.05;;;2.00;;
19482;SDS011;9882;51.166;6.992;2023-07-13T05:55:57;12.02;;;2.83;;
19482;SDS011;9882;51.166;6.992;2023-07-13T05:58:27;9.98;;;2.67;;
19482;SDS011;9882;51.166;6.992;2023-07-13T06:00:59;15.30;;;2.63;;
19482;SDS011;9882;51.166;6.992;2023-07-13T06:03:31;9.60;;;2.80;;
19482;SDS011;9882;51.166;6.992;2023-07-13T06:06:00;5.30;;;2.35;;
19482;SDS011;9882;51.166;6.992;2023-07-13T06:08:29;8.75;;;2.80;;
19482;SDS011;9882;51.166;6.992;2023-07-13T06:11:02;10.18;;;2.97;;
19482;SDS011;9882;51.166;6.992;2023-07-13T06:13:32;5.20;;;2.50;;
19482;SDS011;9882;51.166;6.992;2023-07-13T06:16:01;6.07;;;2.80;;
19482;SDS011;9882;51.166;6.992;2023-07-13T06:18:32;12.10;;;3.00;;
19482;SDS011;9882;51.166;6.992;2023-07-13T06:21:05;12.57;;;2.88;;
19482;SDS011;9882;51.166;6.992;2023-07-13T06:23:34;11.65;;;3.10;;
19482;SDS011;9882;51.166;6.992;2023-07-13T06:26:03;7.13;;;2.40;;
19482;SDS011;9882;51.166;6.992;2023-07-13T06:28:34;8.95;;;2.33;;
19482;SDS011;9882;51.166;6.992;2023-07-13T06:31:04;15.98;;;3.03;;
19482;SDS011;9882;51.166;6.992;2023-07-13T06:33:34;3.47;;;1.90;;
19482;SDS011;9882;51.166;6.992;2023-07-13T06:36:04;4.90;;;2.40;;
19482;SDS011;9882;51.166;6.992;2023-07-13T06:38:34;14.38;;;3.17;;
19482;SDS011;9882;51.166;6.992;2023-07-13T06:41:03;8.55;;;2.90;;
19482;SDS011;9882;51.166;6.992;2023-07-13T06:43:32;7.72;;;2.97;;
19482;SDS011;9882;51.166;6.992;2023-07-13T06:46:01;8.18;;;2.47;;
19482;SDS011;9882;51.166;6.992;2023-07-13T06:48:29;14.80;;;3.00;;
19482;SDS011;9882;51.166;6.992;2023-07-13T06:50:59;4.45;;;2.28;;
19482;SDS011;9882;51.166;6.992;2023-07-13T06:53:30;5.43;;;2.50;;
19482;SDS011;9882;51.166;6.992;2023-07-13T06:55:59;9.73;;;3.47;;
19482;SDS011;9882;51.166;6.992;2023-07-13T06:58:27;6.25;;;2.38;;
19482;SDS011;9882;51.166;6.992;2023-07-13T07:00:56;7.97;;;2.80;;
19482;SDS011;9882;51.166;6.992;2023-07-13T07:03:24;6.30;;;2.67;;
19482;SDS011;9882;51.166;6.992;2023-07-13T07:05:53;8.10;;;2.45;;
19482;SDS011;9882;51.166;6.992;2023-07-13T07:08:23;12.13;;;3.00;;
19482;SDS011;9882;51.166;6.992;2023-07-13T07:10:51;14.38;;;3.45;;
19482;SDS011;9882;51.166;6.992;2023-07-13T07:13:20;16.13;;;3.58;;
19482;SDS011;9882;51.166;6.992;2023-07-13T07:15:49;11.52;;;3.22;;
19482;SDS011;9882;51.166;6.992;2023-07-13T07:18:19;10.20;;;2.88;;
19482;SDS011;9882;51.166;6.992;2023-07-13T07:20:48;15.80;;;3.58;;
19482;SDS011;9882;51.166;6.992;2023-07-13T07:23:17;12.65;;;3.10;;
19482;SDS011;9882;51.166;6.992;2023-07-13T07:25:47;11.13;;;2.85;;
19482;SDS011;9882;51.166;6.992;2023-07-13T07:28:16;13.68;;;3.55;;
19482;SDS011;9882;51.166;6.992;2023-07-13T07:30:48;15.95;;;3.10;;
19482;SDS011;9882;51.166;6.992;2023-07-13T07:33:23;7.43;;;2.58;;
19482;SDS011;9882;51.166;6.992;2023-07-13T07:35:52;12.35;;;3.13;;
19482;SDS011;9882;51.166;6.992;2023-07-13T07:38:23;10.68;;;3.13;;
19482;SDS011;9882;51.166;6.992;2023-07-13T07:40:53;10.52;;;3.22;;
19482;SDS011;9882;51.166;6.992;2023-07-13T07:43:24;14.55;;;3.50;;
19482;SDS011;9882;51.166;6.992;2023-07-13T07:45:53;12.75;;;2.92;;
19482;SDS011;9882;51.166;6.992;2023-07-13T07:48:21;6.72;;;3.00;;
19482;SDS011;9882;51.166;6.992;2023-07-13T07:50:50;5.45;;;2.70;;
19482;SDS011;9882;51.166;6.992;2023-07-13T07:53:18;11.00;;;3.08;;
19482;SDS011;9882;51.166;6.992;2023-07-13T07:55:47;14.18;;;3.08;;
19482;SDS011;9882;51.166;6.992;2023-07-13T07:58:20;9.82;;;3.38;;
19482;SDS011;9882;51.166;6.992;2023-07-13T08:00:51;10.73;;;3.55;;
19482;SDS011;9882;51.166;6.992;2023-07-13T08:03:22;10.82;;;3.58;;
19482;SDS011;9882;51.166;6.992;2023-07-13T08:05:54;17.58;;;3.97;;
19482;SDS011;9882;51.166;6.992;2023-07-13T08:08:39;11.75;;;3.70;;
19482;SDS011;9882;51.166;6.992;2023-07-13T08:11:08;20.23;;;3.90;;
19482;SDS011;9882;51.166;6.992;2023-07-13T08:13:41;14.48;;;3.85;;
19482;SDS011;9882;51.166;6.992;2023-07-13T08:16:10;10.20;;;3.58;;
19482;SDS011;9882;51.166;6.992;2023-07-13T08:18:38;14.20;;;4.30;;
19482;SDS011;9882;51.166;6.992;2023-07-13T08:21:07;11.68;;;3.17;;
19482;SDS011;9882;51.166;6.992;2023-07-13T08:23:37;17.85;;;4.80;;
19482;SDS011;9882;51.166;6.992;2023-07-13T08:26:05;10.38;;;4.43;;
19482;SDS011;9882;51.166;6.992;2023-07-13T08:28:34;18.40;;;4.13;;
19482;SDS011;9882;51.166;6.992;2023-07-13T08:31:04;8.77;;;3.58;;
19482;SDS011;9882;51.166;6.992;2023-07-13T08:33:34;12.85;;;3.65;;
19482;SDS011;9882;51.166;6.992;2023-07-13T08:36:05;10.45;;;4.40;;
19482;SDS011;9882;51.166;6.992;2023-07-13T08:38:33;17.60;;;3.95;;
19482;SDS011;9882;51.166;6.992;2023-07-13T08:41:05;11.48;;;3.70;;
19482;SDS011;9882;51.166;6.992;2023-07-13T08:43:39;9.40;;;3.67;;
19482;SDS011;9882;51.166;6.992;2023-07-13T08:46:13;10.02;;;4.05;;
19482;SDS011;9882;51.166;6.992;2023-07-13T08:48:46;13.55;;;3.65;;
19482;SDS011;9882;51.166;6.992;2023-07-13T08:51:30;23.00;;;4.40;;
19482;SDS011;9882;51.166;6.992;2023-07-13T08:54:05;9.93;;;3.50;;
19482;SDS011;9882;51.166;6.992;2023-07-13T08:56:43;9.75;;;3.38;;
19482;SDS011;9882;51.166;6.992;2023-07-13T08:59:15;12.43;;;3.83;;
19482;SDS011;9882;51.166;6.992;2023-07-13T09:01:55;12.40;;;3.55;;
19482;SDS011;9882;51.166;6.992;2023-07-13T09:04:34;14.38;;;3.38;;
19482;SDS011;9882;51.166;6.992;2023-07-13T09:07:07;8.73;;;3.35;;
19482;SDS011;9882;51.166;6.992;2023-07-13T09:09:50;10.63;;;3.90;;
19482;SDS011;9882;51.166;6.992;2023-07-13T09:12:32;13.60;;;3.75;;
19482;SDS011;9882;51.166;6.992;2023-07-13T09:15:14;7.70;;;3.03;;
19482;SDS011;9882;51.166;6.992;2023-07-13T09:17:53;14.23;;;3.80;;
19482;SDS011;9882;51.166;6.992;2023-07-13T09:20:26;10.85;;;3.08;;
19482;SDS011;9882;51.166;6.992;2023-07-13T09:22:58;13.20;;;3.47;;
19482;SDS011;9882;51.166;6.992;2023-07-13T09:25:30;13.43;;;3.20;;
19482;SDS011;9882;51.166;6.992;2023-07-13T09:28:02;13.32;;;3.33;;
19482;SDS011;9882;51.166;6.992;2023-07-13T09:30:38;9.27;;;3.35;;
19482;SDS011;9882;51.166;6.992;2023-07-13T09:33:19;5.63;;;2.90;;
19482;SDS011;9882;51.166;6.992;2023-07-13T09:35:48;9.43;;;3.22;;
19482;SDS011;9882;51.166;6.992;2023-07-13T09:38:18;8.75;;;3.00;;
19482;SDS011;9882;51.166;6.992;2023-07-13T09:40:54;10.55;;;3.30;;
19482;SDS011;9882;51.166;6.992;2023-07-13T09:43:28;10.43;;;3.13;;
19482;SDS011;9882;51.166;6.992;2023-07-13T09:45:57;10.88;;;3.35;;
19482;SDS011;9882;51.166;6.992;2023-07-13T09:48:32;11.43;;;2.88;;
19482;SDS011;9882;51.166;6.992;2023-07-13T09:51:06;7.07;;;3.20;;
19482;SDS011;9882;51.166;6.992;2023-07-13T09:53:41;9.77;;;3.42;;
19482;SDS011;9882;51.166;6.992;2023-07-13T09:56:20;11.68;;;3.50;;
19482;SDS011;9882;51.166;6.992;2023-07-13T09:58:49;10.93;;;2.85;;
19482;SDS011;9882;51.166;6.992;2023-07-13T10:01:30;10.70;;;3.05;;
19482;SDS011;9882;51.166;6.992;2023-07-13T10:04:02;8.23;;;2.70;;
19482;SDS011;9882;51.166;6.992;2023-07-13T10:06:39;6.03;;;2.58;;
19482;SDS011;9882;51.166;6.992;2023-07-13T10:09:09;12.60;;;3.03;;
19482;SDS011;9882;51.166;6.992;2023-07-13T10:11:42;8.77;;;2.72;;
19482;SDS011;9882;51.166;6.992;2023-07-13T10:14:12;6.72;;;2.85;;
19482;SDS011;9882;51.166;6.992;2023-07-13T10:16:43;5.82;;;2.47;;
19482;SDS011;9882;51.166;6.992;2023-07-13T10:19:15;18.10;;;3.55;;
19482;SDS011;9882;51.166;6.992;2023-07-13T10:21:50;11.68;;;3.25;;
19482;SDS011;9882;51.166;6.992;2023-07-13T10:24:23;10.80;;;3.03;;
19482;SDS011;9882;51.166;6.992;2023-07-13T10:26:53;7.40;;;3.00;;
19482;SDS011;9882;51.166;6.992;2023-07-13T10:29:25;11.35;;;2.60;;
19482;SDS011;9882;51.166;6.992;2023-07-13T10:31:57;16.95;;;3.42;;
19482;SDS011;9882;51.166;6.992;2023-07-13T10:34:27;13.32;;;2.85;;
19482;SDS011;9882;51.166;6.992;2023-07-13T10:36:58;7.20;;;2.78;;
19482;SDS011;9882;51.166;6.992;2023-07-13T10:39:28;4.70;;;2.47;;
19482;SDS011;9882;51.166;6.992;2023-07-13T10:41:58;4.88;;;2.70;;
19482;SDS011;9882;51.166;6.992;2023-07-13T10:44:30;11.25;;;2.72;;
19482;SDS011;9882;51.166;6.992;2023-07-13T10:47:01;10.15;;;3.25;;
19482;SDS011;9882;51.166;6.992;2023-07-13T10:49:35;8.57;;;2.78;;
19482;SDS011;9882;51.166;6.992;2023-07-13T10:52:05;4.50;;;2.33;;
19482;SDS011;9882;51.166;6.992;2023-07-13T10:54:34;6.57;;;2.47;;
19482;SDS011;9882;51.166;6.992;2023-07-13T10:57:08;8.50;;;3.05;;
19482;SDS011;9882;51.166;6.992;2023-07-13T10:59:48;7.65;;;3.05;;
19482;SDS011;9882;51.166;6.992;2023-07-13T11:02:38;8.68;;;3.58;;
19482;SDS011;9882;51.166;6.992;2023-07-13T11:05:15;21.35;;;6.32;;
19482;SDS011;9882;51.166;6.992;2023-07-13T11:07:54;11.15;;;3.15;;
19482;SDS011;9882;51.166;6.992;2023-07-13T11:13:37;7.00;;;2.80;;
19482;SDS011;9882;51.166;6.992;2023-07-13T11:16:33;12.93;;;3.10;;
19482;SDS011;9882;51.166;6.992;2023-07-13T11:22:21;14.00;;;2.80;;
19482;SDS011;9882;51.166;6.992;2023-07-13T11:24:59;10.60;;;2.85;;
19482;SDS011;9882;51.166;6.992;2023-07-13T11:27:39;15.38;;;3.28;;
19482;SDS011;9882;51.166;6.992;2023-07-13T11:30:24;6.53;;;2.85;;
19482;SDS011;9882;51.166;6.992;2023-07-13T11:33:03;8.63;;;2.45;;
19482;SDS011;9882;51.166;6.992;2023-07-13T11:35:41;6.18;;;2.67;;
19482;SDS011;9882;51.166;6.992;2023-07-13T11:38:16;7.78;;;2.47;;
19482;SDS011;9882;51.166;6.992;2023-07-13T11:40:47;9.57;;;3.00;;
19482;SDS011;9882;51.166;6.992;2023-07-13T11:43:17;7.95;;;2.33;;
19482;SDS011;9882;51.166;6.992;2023-07-13T11:45:46;10.50;;;3.00;;
19482;SDS011;9882;51.166;6.992;2023-07-13T11:48:19;7.03;;;2.88;;
19482;SDS011;9882;51.166;6.992;2023-07-13T11:50:53;10.30;;;2.83;;
19482;SDS011;9882;51.166;6.992;2023-07-13T11:53:27;9.43;;;3.10;;
19482;SDS011;9882;51.166;6.992;2023-07-13T11:55:58;12.32;;;3.10;;
19482;SDS011;9882;51.166;6.992;2023-07-13T11:58:28;6.95;;;2.80;;
19482;SDS011;9882;51.166;6.992;2023-07-13T12:00:57;5.72;;;2.90;;
19482;SDS011;9882;51.166;6.992;2023-07-13T12:03:29;10.30;;;2.80;;
19482;SDS011;9882;51.166;6.992;2023-07-13T12:05:58;8.68;;;2.60;;
19482;SDS011;9882;51.166;6.992;2023-07-13T12:08:30;11.68;;;2.80;;
19482;SDS011;9882;51.166;6.992;2023-07-13T12:11:05;13.70;;;2.47;;
19482;SDS011;9882;51.166;6.992;2023-07-13T12:13:43;2.42;;;2.03;;
19482;SDS011;9882;51.166;6.992;2023-07-13T12:16:14;6.90;;;2.83;;
19482;SDS011;9882;51.166;6.992;2023-07-13T12:18:44;15.77;;;2.65;;
19482;SDS011;9882;51.166;6.992;2023-07-13T12:21:16;12.75;;;2.72;;
19482;SDS011;9882;51.166;6.992;2023-07-13T12:23:48;4.90;;;2.50;;
19482;SDS011;9882;51.166;6.992;2023-07-13T12:26:17;6.88;;;2.65;;
19482;SDS011;9882;51.166;6.992;2023-07-13T12:28:48;6.93;;;2.53;;
19482;SDS011;9882;51.166;6.992;2023-07-13T12:31:24;7.57;;;2.60;;
19482;SDS011;9882;51.166;6.992;2023-07-13T12:34:01;5.85;;;2.05;;
19482;SDS011;9882;51.166;6.992;2023-07-13T12:36:34;7.80;;;2.38;;
19482;SDS011;9882;51.166;6.992;2023-07-13T12:39:13;4.85;;;2.28;;
19482;SDS011;9882;51.166;6.992;2023-07-13T12:41:43;9.05;;;2.75;;
19482;SDS011;9882;51.166;6.992;2023-07-13T12:44:14;7.53;;;2.60;;
19482;SDS011;9882;51.166;6.992;2023-07-13T12:46:55;6.97;;;2.55;;
19482;SDS011;9882;51.166;6.992;2023-07-13T12:49:27;7.32;;;2.40;;
19482;SDS011;9882;51.166;6.992;2023-07-13T12:51:57;6.95;;;2.38;;
19482;SDS011;9882;51.166;6.992;2023-07-13T12:54:29;11.05;;;2.55;;
19482;SDS011;9882;51.166;6.992;2023-07-13T12:56:58;7.25;;;2.35;;
19482;SDS011;9882;51.166;6.992;2023-07-13T12:59:30;4.85;;;2.00;;
19482;SDS011;9882;51.166;6.992;2023-07-13T13:02:12;13.98;;;2.15;;
19482;SDS011;9882;51.166;6.992;2023-07-13T13:04:50;5.30;;;2.30;;
19482;SDS011;9882;51.166;6.992;2023-07-13T13:07:19;4.30;;;2.10;;
19482;SDS011;9882;51.166;6.992;2023-07-13T13:09:49;4.75;;;1.85;;
19482;SDS011;9882;51.166;6.992;2023-07-13T13:12:17;9.18;;;2.15;;
19482;SDS011;9882;51.166;6.992;2023-07-13T13:14:46;4.07;;;2.25;;
19482;SDS011;9882;51.166;6.992;2023-07-13T13:17:17;6.10;;;2.08;;
19482;SDS011;9882;51.166;6.992;2023-07-13T13:19:47;15.75;;;2.65;;
19482;SDS011;9882;51.166;6.992;2023-07-13T13:22:16;8.48;;;2.78;;
19482;SDS011;9882;51.166;6.992;2023-07-13T13:24:45;7.88;;;2.28;;
19482;SDS011;9882;51.166;6.992;2023-07-13T13:27:19;7.45;;;2.45;;
19482;SDS011;9882;51.166;6.992;2023-07-13T13:29:50;4.82;;;2.10;;
19482;SDS011;9882;51.166;6.992;2023-07-13T13:32:19;7.38;;;2.40;;
19482;SDS011;9882;51.166;6.992;2023-07-13T13:34:48;7.97;;;1.88;;
19482;SDS011;9882;51.166;6.992;2023-07-13T13:37:18;6.10;;;2.35;;
19482;SDS011;9882;51.166;6.992;2023-07-13T13:39:49;5.70;;;2.00;;
19482;SDS011;9882;51.166;6.992;2023-07-13T13:42:30;3.38;;;1.65;;
19482;SDS011;9882;51.166;6.992;2023-07-13T13:44:58;10.85;;;2.20;;
19482;SDS011;9882;51.166;6.992;2023-07-13T13:47:29;3.80;;;1.98;;
19482;SDS011;9882;51.166;6.992;2023-07-13T13:50:00;6.65;;;2.17;;
19482;SDS011;9882;51.166;6.992;2023-07-13T13:52:29;3.80;;;2.10;;
19482;SDS011;9882;51.166;6.992;2023-07-13T13:54:57;10.57;;;2.40;;
19482;SDS011;9882;51.166;6.992;2023-07-13T13:57:26;10.20;;;2.00;;
19482;SDS011;9882;51.166;6.992;2023-07-13T13:59:57;6.70;;;2.13;;
19482;SDS011;9882;51.166;6.992;2023-07-13T14:02:26;10.75;;;2.05;;
19482;SDS011;9882;51.166;6.992;2023-07-13T14:04:59;2.85;;;1.95;;
19482;SDS011;9882;51.166;6.992;2023-07-13T14:07:29;3.88;;;1.85;;
19482;SDS011;9882;51.166;6.992;2023-07-13T14:09:58;4.15;;;2.13;;
19482;SDS011;9882;51.166;6.992;2023-07-13T14:12:28;7.20;;;2.08;;
19482;SDS011;9882;51.166;6.992;2023-07-13T14:14:58;10.52;;;2.15;;
19482;SDS011;9882;51.166;6.992;2023-07-13T14:17:27;5.05;;;1.98;;
19482;SDS011;9882;51.166;6.992;2023-07-13T14:19:56;8.32;;;2.53;;
19482;SDS011;9882;51.166;6.992;2023-07-13T14:22:25;13.73;;;2.33;;
19482;SDS011;9882;51.166;6.992;2023-07-13T14:24:55;7.20;;;2.20;;
19482;SDS011;9882;51.166;6.992;2023-07-13T14:27:25;6.70;;;2.17;;
19482;SDS011;9882;51.166;6.992;2023-07-13T14:29:54;8.15;;;2.53;;
19482;SDS011;9882;51.166;6.992;2023-07-13T14:32:24;5.55;;;2.13;;
19482;SDS011;9882;51.166;6.992;2023-07-13T14:34:52;8.77;;;2.17;;
19482;SDS011;9882;51.166;6.992;2023-07-13T14:37:21;11.93;;;2.45;;
19482;SDS011;9882;51.166;6.992;2023-07-13T14:39:50;10.68;;;2.30;;
19482;SDS011;9882;51.166;6.992;2023-07-13T14:42:19;2.60;;;2.05;;
19482;SDS011;9882;51.166;6.992;2023-07-13T14:44:48;8.15;;;1.88;;
19482;SDS011;9882;51.166;6.992;2023-07-13T14:47:17;5.85;;;2.45;;
19482;SDS011;9882;51.166;6.992;2023-07-13T14:49:47;8.02;;;2.17;;
19482;SDS011;9882;51.166;6.992;2023-07-13T14:52:16;3.65;;;2.13;;
19482;SDS011;9882;51.166;6.992;2023-07-13T14:54:46;5.85;;;1.75;;
19482;SDS011;9882;51.166;6.992;2023-07-13T14:57:16;2.53;;;1.73;;
19482;SDS011;9882;51.166;6.992;2023-07-13T14:59:46;11.02;;;2.53;;
19482;SDS011;9882;51.166;6.992;2023-07-13T15:02:16;14.68;;;2.47;;
19482;SDS011;9882;51.166;6.992;2023-07-13T15:04:47;11.98;;;2.33;;
19482;SDS011;9882;51.166;6.992;2023-07-13T15:07:16;8.00;;;2.10;;
19482;SDS011;9882;51.166;6.992;2023-07-13T15:09:45;5.35;;;2.20;;
19482;SDS011;9882;51.166;6.992;2023-07-13T15:12:14;5.95;;;2.33;;
19482;SDS011;9882;51.166;6.992;2023-07-13T15:14:43;5.25;;;2.25;;
19482;SDS011;9882;51.166;6.992;2023-07-13T15:17:17;8.80;;;3.03;;
19482;SDS011;9882;51.166;6.992;2023-07-13T15:19:54;7.90;;;3.45;;
19482;SDS011;9882;51.166;6.992;2023-07-13T15:22:23;6.15;;;2.75;;
19482;SDS011;9882;51.166;6.992;2023-07-13T15:24:51;11.55;;;3.05;;
19482;SDS011;9882;51.166;6.992;2023-07-13T15:27:20;8.15;;;3.13;;